ADDS METAR Data INFO
IDs: Format: Raw Decoded Include TAF

Data at: 0742 UTC 21 Jul 2018

PAEG 210653Z AUTO 00000KT 10SM FEW080 14/11 A3019 RMK AO2 SLP223 T01440106 TSNO
PAEG 210453Z AUTO 00000KT 10SM OVC080 19/12 A3017 RMK SLP215 T01940122 TSNO VIA AUTODIAL
PAEG 210353Z AUTO 04003KT 10SM BKN090 20/12 A3015 RMK SLP211 T02000117 TSNO VIA AUTODIAL
PAEG 210253Z AUTO 04006KT 10SM BKN090 22/11 A3015 RMK SLP210 T02170111 55004 TSNO VIA AUTODIAL
PAEG 210153Z AUTO 03005KT 10SM SCT080 OVC110 22/12 A3015 RMK AO2 SLP209 T02170117 TSNO
PAEG 210053Z AUTO 00000KT 10SM BKN085 21/10 A3015 RMK AO2 SLP211 T02110100 TSNO
PAEG 202253Z AUTO 00000KT 10SM SCT070 21/11 A3017 RMK SLP217 T02110106 TSNO VIA AUTODIAL
PAEG 202153Z AUTO 00000KT 10SM OVC065 21/11 A3018 RMK AO2 SLP220 T02110111 TSNO
PAEG 202053Z AUTO 33003KT 10SM OVC110 19/11 A3018 RMK AO2 SLP219 T01940106 56008 TSNO
PAEG 201953Z AUTO 04004KT 10SM CLR 20/10 A3018 RMK AO2 SLP221 T02000100 TSNO
PAEG 201853Z AUTO 00000KT 10SM SCT060 19/10 A3019 RMK AO2 SLP225 T01890100 TSNO
PAEG 201653Z AUTO 00000KT 10SM CLR 17/10 A3022 RMK AO2 SLP232 T01670100 TSNO
PAEG 201553Z AUTO 05004KT 10SM CLR 15/10 A3022 RMK AO2 SLP234 T01500100 TSNO
PAEG 201453Z AUTO 00000KT 10SM OVC055 13/11 A3023 RMK AO2 SLP236 T01330106 50002 TSNO
PAEG 201353Z AUTO 00000KT 10SM OVC060 13/11 A3023 RMK AO2 SLP237 T01280106 TSNO
PAEG 201253Z AUTO 00000KT 10SM OVC060 12/10 A3023 RMK AO2 SLP236 T01220100 TSNO
PAEG 201053Z AUTO 08003KT 10SM BKN036 OVC065 13/10 A3021 RMK AO2 SLP231 T01330100 TSNO
PAEG 200953Z AUTO 00000KT 10SM OVC035 14/10 A3020 RMK AO2 SLP226 T01390100 TSNO
PAEG 200853Z AUTO 00000KT 10SM FEW060 BKN080 OVC110 14/10 A3017 RMK AO2 SLP218 T01440100 402280083 53023 TSNO
PAEG 200753Z AUTO 00000KT 10SM BKN080 OVC120 15/11 A3016 RMK AO2 SLP212 T01500106 TSNO
PAEG 200453Z AUTO 00000KT 10SM SCT080 BKN095 19/09 A3009 RMK AO2 SLP190 T01890089 TSNO
PAEG 200153Z AUTO 00000KT 10SM OVC070 23/09 A3005 RMK AO2 SLP178 T02280089 TSNO
PAEG 200053Z AUTO 25007KT 10SM SCT075 22/08 A3006 RMK AO2 SLP179 T02170078 TSNO
PAEG 192153Z AUTO 14004KT 10SM SCT075 SCT085 21/09 A3007 RMK AO2 SLP182 T02110089 TSNO
PAEG 192053Z AUTO 00000KT 10SM OVC085 21/09 A3007 RMK AO2 SLP185 T02060094 57004 TSNO
PAEG 191953Z AUTO VRB04KT 10SM OVC075 19/09 A3008 RMK AO2 SLP186 T01940094 TSNO